Time;durP1;ratioP1;P1;durP2;ratioP2;P2;SDS_P1;SDS_P2;PMS_P1;PMS_P2;Temp;Humidity;BMP_temperature;BMP_pressure;BME280_temperature;BME280_humidity;BME280_pressure;Samples;Min_cycle;Max_cycle;Signal;HPM_P1;HPM_P2
2022/05/23 00:01:04;;;;;;;;;;;;;;;14.00;59.96;99457.75;4349981;33;19976;-85
2022/05/23 00:03:30;;;;;;;;;;;;;;;13.70;59.95;99457.50;4349943;33;20297;-86
2022/05/23 00:05:55;;;;;;;;;;;;;;;13.67;59.94;99443.72;4349951;33;19984;-85
2022/05/23 00:08:21;;;;;;;;;;;;;;;13.76;59.95;99448.53;4336179;33;20039;-85
2022/05/23 00:10:46;;;;;;;;;;;;;;;13.70;59.95;99447.03;4336273;33;20017;-86
2022/05/23 00:13:12;;;;;;;;;;;;;;;13.81;59.96;99452.59;4349867;33;20011;-85
2022/05/23 00:15:37;;;;;;;;;;;;;;;13.62;59.94;99453.56;4349940;33;20023;-86
2022/05/23 00:18:02;;;;;;;;;;;;;;;13.81;59.96;99444.75;4336403;33;20385;-85
2022/05/23 00:20:28;;;;;;;;;;;;;;;13.65;59.95;99446.41;4336173;33;20274;-85
2022/05/23 00:22:53;;;;;;;;;;;;;;;13.70;59.95;99448.81;4349752;33;19972;-84
2022/05/23 00:25:18;;;;;;;;;;;;;;;13.91;59.96;99439.03;4336152;33;20333;-85
2022/05/23 00:27:44;;;;;;;;;;;;;;;13.73;59.96;99444.28;4352257;33;19944;-86
2022/05/23 00:30:11;;;;;;;;;;;;;;;13.56;59.95;99441.66;4350916;33;19951;-84
2022/05/23 00:35:20;;;;;;;;;;;;;;;13.58;59.95;99450.28;4349785;33;19997;-85
2022/05/23 00:37:49;;;;;;;;;;;;;;;13.70;59.95;99444.41;4336132;33;19980;-85
2022/05/23 00:40:30;;;;;;;;;;;;;;;13.75;59.96;99439.84;4348365;33;19991;-86
2022/05/23 00:43:14;;;;;;;;;;;;;;;13.76;59.96;99443.28;4348385;33;19980;-86
2022/05/23 00:46:02;;;;;;;;;;;;;;;13.67;59.95;99441.12;4337572;33;20052;-85
2022/05/23 00:48:28;;;;;;;;;;;;;;;13.57;59.95;99440.72;4342512;33;19995;-85
2022/05/23 00:51:01;;;;;;;;;;;;;;;13.65;59.95;99433.34;4336347;33;20332;-85
2022/05/23 00:53:28;;;;;;;;;;;;;;;13.72;59.96;99444.34;4336416;33;20045;-86
2022/05/23 00:55:54;;;;;;;;;;;;;;;13.76;59.95;99446.75;4335699;33;20058;-86
2022/05/23 00:58:24;;;;;;;;;;;;;;;13.67;59.95;99449.81;4335529;33;19992;-83
2022/05/23 01:00:49;;;;;;;;;;;;;;;13.79;59.96;99449.22;4349589;33;19984;-84
2022/05/23 01:03:15;;;;;;;;;;;;;;;13.65;59.95;99453.44;4349700;33;19995;-84
2022/05/23 01:05:40;;;;;;;;;;;;;;;13.41;59.92;99452.84;4349721;33;19984;-84
2022/05/23 01:08:06;;;;;;;;;;;;;;;13.41;59.93;99451.09;4349678;33;19995;-84
2022/05/23 01:10:31;;;;;;;;;;;;;;;13.45;59.94;99444.78;4349638;33;19979;-84
2022/05/23 01:12:56;;;;;;;;;;;;;;;13.33;59.93;99447.16;4336047;33;20318;-84
2022/05/23 01:15:22;;;;;;;;;;;;;;;13.53;59.94;99441.81;4349191;33;20996;-84
2022/05/23 01:17:48;;;;;;;;;;;;;;;13.59;59.95;99443.28;4336053;33;20321;-84
2022/05/23 01:20:13;;;;;;;;;;;;;;;13.63;59.94;99440.41;4335813;33;19980;-84
2022/05/23 01:22:38;;;;;;;;;;;;;;;13.46;59.94;99449.09;4335789;33;19975;-84
2022/05/23 01:25:04;;;;;;;;;;;;;;;13.51;59.94;99444.50;4349458;33;19976;-84
2022/05/23 01:27:29;;;;;;;;;;;;;;;13.47;59.93;99452.53;4347781;33;20331;-84
2022/05/23 01:29:54;;;;;;;;;;;;;;;13.51;59.94;99454.13;4349076;33;20027;-84
2022/05/23 01:32:19;;;;;;;;;;;;;;;13.64;59.95;99434.28;4349270;33;20020;-84
2022/05/23 01:37:29;;;;;;;;;;;;;;;13.87;59.95;99419.19;4337718;33;20022;-84
2022/05/23 01:39:54;;;;;;;;;;;;;;;13.72;59.95;99416.44;4335689;33;20026;-84
2022/05/23 01:42:19;;;;;;;;;;;;;;;13.58;59.95;99421.50;4335373;33;19972;-85
2022/05/23 01:44:44;;;;;;;;;;;;;;;13.86;59.96;99412.28;4347435;33;22865;-84
2022/05/23 01:47:10;;;;;;;;;;;;;;;13.79;59.96;99414.34;4349050;33;19983;-84
2022/05/23 01:49:36;;;;;;;;;;;;;;;13.85;59.95;99414.03;4349033;33;19975;-84
2022/05/23 01:52:01;;;;;;;;;;;;;;;13.57;59.95;99417.19;4348748;33;20234;-83
2022/05/23 01:54:26;;;;;;;;;;;;;;;13.77;59.95;99409.22;4348909;33;20239;-84
2022/05/23 01:56:52;;;;;;;;;;;;;;;13.49;59.94;99412.34;4349061;33;19975;-84
2022/05/23 02:02:01;;;;;;;;;;;;;;;13.35;59.93;99406.09;4337477;33;20071;-85
2022/05/23 02:04:27;;;;;;;;;;;;;;;12.99;59.92;99408.66;4335514;33;20291;-85
2022/05/23 02:06:53;;;;;;;;;;;;;;;13.19;59.93;99411.22;4335499;33;20031;-85
2022/05/23 02:09:26;;;;;;;;;;;;;;;13.11;59.92;99414.16;4348658;33;20007;-84
2022/05/23 02:11:51;;;;;;;;;;;;;;;13.08;59.91;99416.94;4348896;33;20042;-84
2022/05/23 02:14:16;;;;;;;;;;;;;;;13.12;59.92;99407.19;4335345;33;20322;-83
2022/05/23 02:16:41;;;;;;;;;;;;;;;13.07;59.92;99403.94;4348511;33;20006;-84
2022/05/23 02:19:07;;;;;;;;;;;;;;;13.03;59.92;99408.47;4358031;33;19952;-84
2022/05/23 02:21:32;;;;;;;;;;;;;;;13.05;59.91;99411.84;4355072;33;20003;-84
2022/05/23 02:23:57;;;;;;;;;;;;;;;12.91;59.91;99406.41;4349070;33;20999;-84
2022/05/23 02:26:22;;;;;;;;;;;;;;;12.85;59.90;99414.56;4348443;33;19988;-84
2022/05/23 02:28:48;;;;;;;;;;;;;;;12.83;59.90;99406.78;4348481;33;20019;-84
2022/05/23 02:31:13;;;;;;;;;;;;;;;12.76;59.90;99402.75;4348193;33;20842;-85
2022/05/23 02:33:38;;;;;;;;;;;;;;;12.59;59.89;99407.91;4347495;33;20304;-85
2022/05/23 02:36:04;;;;;;;;;;;;;;;12.54;59.88;99402.91;4348364;33;20007;-85
2022/05/23 02:38:29;;;;;;;;;;;;;;;12.56;59.89;99406.31;4348495;33;19994;-85
2022/05/23 02:40:54;;;;;;;;;;;;;;;12.52;59.88;99406.47;4348169;33;20317;-86
2022/05/23 02:43:20;;;;;;;;;;;;;;;12.44;59.88;99413.81;4335166;33;20076;-86
2022/05/23 02:45:45;;;;;;;;;;;;;;;12.46;59.88;99407.63;4334579;33;22840;-87
2022/05/23 02:48:10;;;;;;;;;;;;;;;12.51;59.89;99403.03;4348351;33;19998;-87
2022/05/23 02:50:36;;;;;;;;;;;;;;;12.51;59.88;99402.19;4348513;33;20324;-86
2022/05/23 02:53:01;;;;;;;;;;;;;;;12.43;59.88;99402.53;4334834;33;20040;-87
2022/05/23 02:55:26;;;;;;;;;;;;;;;12.33;59.87;99406.50;4347060;33;19992;-87
2022/05/23 02:57:51;;;;;;;;;;;;;;;12.35;59.88;99402.03;4334713;33;19987;-86
2022/05/23 03:00:17;;;;;;;;;;;;;;;12.24;59.87;99404.25;4334757;33;20035;-85
2022/05/23 03:05:26;;;;;;;;;;;;;;;12.24;59.87;99405.13;4336842;33;20095;-85
2022/05/23 03:07:52;;;;;;;;;;;;;;;12.31;59.87;99410.94;4334577;33;20334;-85
2022/05/23 03:10:17;;;;;;;;;;;;;;;12.45;59.88;99408.53;4347819;33;19982;-86
2022/05/23 03:12:42;;;;;;;;;;;;;;;12.66;59.89;99408.47;4348162;33;19997;-87
2022/05/23 03:15:07;;;;;;;;;;;;;;;12.56;59.89;99408.06;4348122;33;19971;-86
2022/05/23 03:17:33;;;;;;;;;;;;;;;12.49;59.88;99410.09;4334493;33;19976;-86
2022/05/23 03:19:58;;;;;;;;;;;;;;;12.53;59.89;99416.84;4335327;33;19983;-86
2022/05/23 03:27:51;;;;;;;;;;;;;;;12.64;59.88;99410.31;4350237;33;19998;-86
2022/05/23 03:30:16;;;;;;;;;;;;;;;12.59;59.89;99410.53;4336735;33;19983;-86
2022/05/23 03:32:42;;;;;;;;;;;;;;;12.62;59.88;99407.78;4349792;33;20002;-85
2022/05/23 03:35:07;;;;;;;;;;;;;;;12.14;59.86;99419.50;4350157;33;19994;-86
2022/05/23 03:37:33;;;;;;;;;;;;;;;12.24;59.87;99410.34;4336636;33;20083;-86
2022/05/23 03:39:58;;;;;;;;;;;;;;;12.31;59.87;99415.31;4350065;33;20000;-85
2022/05/23 03:42:23;;;;;;;;;;;;;;;12.39;59.87;99410.56;4349671;33;20026;-85
2022/05/23 03:44:48;;;;;;;;;;;;;;;12.34;59.87;99423.00;4348758;33;20076;-85
2022/05/23 03:47:13;;;;;;;;;;;;;;;12.39;59.88;99416.66;4336119;33;20305;-86
2022/05/23 03:49:39;;;;;;;;;;;;;;;12.54;59.89;99409.91;4348097;33;20253;-85
2022/05/23 03:52:04;;;;;;;;;;;;;;;12.51;59.89;99415.22;4349712;33;20006;-86
2022/05/23 03:54:29;;;;;;;;;;;;;;;12.61;59.89;99411.31;4336213;33;20031;-85
2022/05/23 03:56:58;;;;;;;;;;;;;;;12.88;59.92;99404.81;4336363;33;19987;-84
2022/05/23 03:59:24;;;;;;;;;;;;;;;12.86;59.90;99398.81;4349822;33;19967;-85
2022/05/23 04:01:49;;;;;;;;;;;;;;;12.94;59.90;99411.50;4349531;33;19976;-87
2022/05/23 04:04:14;;;;;;;;;;;;;;;12.88;59.91;99406.56;4335869;33;19987;-87
2022/05/23 04:06:39;;;;;;;;;;;;;;;12.99;59.91;99401.66;4349534;33;19980;-86
2022/05/23 04:09:05;;;;;;;;;;;;;;;13.31;59.92;99404.56;4359801;33;19990;-85
2022/05/23 04:11:30;;;;;;;;;;;;;;;13.27;59.93;99403.03;4352340;33;20039;-85
2022/05/23 04:13:55;;;;;;;;;;;;;;;12.97;59.91;99405.28;4348375;33;22807;-84
2022/05/23 04:16:21;;;;;;;;;;;;;;;12.91;59.90;99401.19;4336193;33;20029;-85
2022/05/23 04:18:46;;;;;;;;;;;;;;;13.01;59.91;99401.59;4336177;33;19991;-85
2022/05/23 04:21:11;;;;;;;;;;;;;;;13.22;59.92;99403.22;4349100;33;20002;-86
2022/05/23 04:23:36;;;;;;;;;;;;;;;13.26;59.92;99401.31;4349968;33;19998;-86
2022/05/23 04:26:04;;;;;;;;;;;;;;;13.26;59.92;99396.09;4335527;33;19987;-87
2022/05/23 04:28:30;;;;;;;;;;;;;;;13.56;59.93;99394.59;4336253;33;20317;-87
2022/05/23 04:30:55;;;;;;;;;;;;;;;13.64;59.95;99397.66;4335468;33;20038;-87
2022/05/23 04:36:04;;;;;;;;;;;;;;;13.80;59.95;99393.34;4338118;33;20041;-88
2022/05/23 04:38:30;;;;;;;;;;;;;;;14.23;59.97;99395.53;4335851;33;19972;-87
2022/05/23 04:40:55;;;;;;;;;;;;;;;14.21;59.97;99394.78;4335809;33;19983;-88
2022/05/23 04:43:21;;;;;;;;;;;;;;;14.20;59.97;99386.06;4335822;33;20335;-88
2022/05/23 04:45:46;;;;;;;;;;;;;;;14.34;59.98;99385.31;4335824;33;19984;-87
2022/05/23 04:50:55;;;;;;;;;;;;;;;14.52;59.99;99396.63;4349055;33;20054;-87
2022/05/23 04:53:20;;;;;;;;;;;;;;;14.61;59.99;99409.22;4348040;33;19999;-87
2022/05/23 04:55:45;;;;;;;;;;;;;;;14.71;60.01;99410.44;4347634;33;19975;-87
2022/05/23 04:58:11;;;;;;;;;;;;;;;14.64;59.99;99406.44;4349128;33;19987;-87
2022/05/23 05:00:39;;;;;;;;;;;;;;;14.80;60.01;99401.22;4335707;33;19995;-87
2022/05/23 05:03:04;;;;;;;;;;;;;;;15.00;60.01;99403.59;4348416;32;20499;-87
2022/05/23 05:05:29;;;;;;;;;;;;;;;14.83;60.00;99417.59;4335981;33;20031;-87
2022/05/23 05:07:55;;;;;;;;;;;;;;;15.00;60.01;99412.28;4335941;33;20020;-87
2022/05/23 05:10:23;;;;;;;;;;;;;;;15.19;60.03;99403.41;4335914;33;19992;-87
2022/05/23 05:12:48;;;;;;;;;;;;;;;15.52;60.04;99408.50;4336184;33;20324;-87
2022/05/23 05:15:13;;;;;;;;;;;;;;;15.32;60.04;99412.25;4335901;33;19979;-88
2022/05/23 05:17:38;;;;;;;;;;;;;;;15.49;60.05;99412.16;4349289;33;20022;-89
2022/05/23 05:20:04;;;;;;;;;;;;;;;15.90;60.06;99406.31;4335866;33;20005;-87
2022/05/23 05:22:29;;;;;;;;;;;;;;;16.20;60.08;99408.88;4335892;33;19979;-88
2022/05/23 05:24:54;;;;;;;;;;;;;;;16.35;60.08;99402.69;4348018;33;19991;-88
2022/05/23 05:27:20;;;;;;;;;;;;;;;16.43;60.09;99399.59;4335185;33;19990;-88
2022/05/23 05:29:45;;;;;;;;;;;;;;;16.68;60.10;99401.56;4348820;33;19975;-88
2022/05/23 05:32:12;;;;;;;;;;;;;;;16.74;60.11;99404.66;4335570;33;19988;-88
2022/05/23 05:34:38;;;;;;;;;;;;;;;16.81;60.11;99395.47;4349263;33;19976;-88
2022/05/23 05:37:07;;;;;;;;;;;;;;;17.08;60.13;99398.13;4347780;33;19998;-88
2022/05/23 05:39:32;;;;;;;;;;;;;;;17.24;60.15;99410.25;4335611;33;19987;-88
2022/05/23 05:41:59;;;;;;;;;;;;;;;17.39;60.15;99396.12;4347658;33;20328;-88
2022/05/23 05:44:25;;;;;;;;;;;;;;;17.52;60.15;99394.38;4335417;33;20039;-89
2022/05/23 05:46:52;;;;;;;;;;;;;;;17.90;60.17;99398.87;4335298;33;19990;-88
2022/05/23 05:49:21;;;;;;;;;;;;;;;18.07;60.19;99398.59;4335510;33;20003;-88
2022/05/23 05:51:47;;;;;;;;;;;;;;;18.17;60.19;99396.16;4335399;33;19999;-88
2022/05/23 05:54:13;;;;;;;;;;;;;;;18.14;60.18;99404.28;4346916;33;20538;-88
2022/05/23 05:56:38;;;;;;;;;;;;;;;18.36;60.20;99405.31;4327958;33;19994;-87
2022/05/23 05:59:04;;;;;;;;;;;;;;;18.49;60.21;99397.41;4347390;33;20345;-88
2022/05/23 06:01:29;;;;;;;;;;;;;;;18.55;60.21;99402.25;4350280;33;20034;-88
2022/05/23 06:03:54;;;;;;;;;;;;;;;18.64;60.22;99406.87;4334982;33;19988;-88
2022/05/23 06:11:48;;;;;;;;;;;;;;;19.15;60.23;99398.00;4335779;33;20002;-87
2022/05/23 06:14:13;;;;;;;;;;;;;;;19.37;60.25;99402.53;4334361;33;19983;-86
2022/05/23 06:16:38;;;;;;;;;;;;;;;19.60;60.26;99402.53;4347359;33;20061;-84
2022/05/23 06:19:04;;;;;;;;;;;;;;;19.69;60.26;99400.19;4334830;33;19983;-85
2022/05/23 06:21:29;;;;;;;;;;;;;;;19.80;60.27;99401.06;4333471;33;19999;-86
2022/05/23 06:23:55;;;;;;;;;;;;;;;20.02;60.29;99404.72;4344995;33;19975;-88
2022/05/23 06:26:23;;;;;;;;;;;;;;;20.08;60.29;99399.78;4333623;33;20305;-88
2022/05/23 06:28:49;;;;;;;;;;;;;;;20.29;60.29;99407.03;4347377;33;20617;-89
2022/05/23 06:31:15;;;;;;;;;;;;;;;20.41;60.31;99396.38;4347229;33;20002;-89
2022/05/23 06:33:41;;;;;;;;;;;;;;;20.58;60.31;99397.69;4347310;33;20760;-89
2022/05/23 06:36:06;;;;;;;;;;;;;;;20.78;60.33;99393.47;4346982;33;19971;-88
2022/05/23 06:38:32;;;;;;;;;;;;;;;20.94;60.34;99388.63;4347239;33;20006;-88
2022/05/23 06:40:57;;;;;;;;;;;;;;;21.10;60.34;99385.59;4348378;33;19980;-86
2022/05/23 06:43:22;;;;;;;;;;;;;;;21.50;60.36;99383.19;4348160;33;20411;-87
2022/05/23 06:45:47;;;;;;;;;;;;;;;21.71;60.38;99373.44;4346791;33;20305;-86
2022/05/23 06:48:13;;;;;;;;;;;;;;;22.03;60.39;99372.56;4348178;33;19999;-87
2022/05/23 06:50:38;;;;;;;;;;;;;;;22.31;60.40;99365.75;4348474;33;20038;-87
2022/05/23 06:53:04;;;;;;;;;;;;;;;22.39;60.41;99365.09;4334552;33;20649;-86
2022/05/23 06:55:29;;;;;;;;;;;;;;;22.65;60.43;99366.28;4348888;33;19964;-87
2022/05/23 06:57:54;;;;;;;;;;;;;;;22.91;60.44;99358.69;4348402;33;19987;-87
2022/05/23 07:00:20;;;;;;;;;;;;;;;22.95;60.44;99358.31;4350199;33;19979;-86
2022/05/23 07:02:46;;;;;;;;;;;;;;;23.16;60.45;99355.53;4348344;33;19998;-87
2022/05/23 07:13:39;;;;;;;;;;;;;;;23.24;60.45;99346.88;4330508;33;20041;-86
2022/05/23 07:16:05;;;;;;;;;;;;;;;23.33;60.45;99346.03;4345572;33;20298;-86
2022/05/23 07:18:30;;;;;;;;;;;;;;;23.48;60.46;99351.78;4346222;33;19992;-86
2022/05/23 07:20:55;;;;;;;;;;;;;;;23.63;60.47;99349.53;4346212;33;19992;-86
2022/05/23 07:23:21;;;;;;;;;;;;;;;23.68;60.48;99350.81;4345995;33;20007;-86
2022/05/23 07:25:46;;;;;;;;;;;;;;;23.79;60.48;99347.13;4334957;33;20015;-85
2022/05/23 07:28:11;;;;;;;;;;;;;;;23.61;60.48;99341.72;4334654;33;22340;-84
2022/05/23 07:30:37;;;;;;;;;;;;;;;23.64;60.48;99345.91;4346250;33;19992;-83
2022/05/23 07:33:02;;;;;;;;;;;;;;;23.81;60.49;99339.84;4335231;33;19984;-84
2022/05/23 07:35:27;;;;;;;;;;;;;;;23.99;60.50;99337.31;4334750;33;20020;-83
2022/05/23 07:37:53;;;;;;;;;;;;;;;24.11;60.51;99334.31;4346099;33;19992;-85
2022/05/23 07:40:19;;;;;;;;;;;;;;;23.91;60.49;99334.53;4335218;33;20496;-85
2022/05/23 07:42:44;;;;;;;;;;;;;;;23.86;60.49;99337.59;4334966;33;19976;-84
2022/05/23 07:45:10;;;;;;;;;;;;;;;23.88;60.50;99330.31;4335014;33;20282;-86
2022/05/23 07:47:35;;;;;;;;;;;;;;;23.97;60.50;99326.81;4352359;33;20011;-84
2022/05/23 07:50:01;;;;;;;;;;;;;;;23.86;60.49;99326.97;4336243;33;20350;-84
2022/05/23 07:52:26;;;;;;;;;;;;;;;24.00;60.50;99333.66;4335104;33;20032;-85
2022/05/23 08:00:32;;;;;;;;;;;;;;;24.02;60.50;99327.22;4334821;33;20054;-85
2022/05/23 08:03:05;;;;;;;;;;;;;;;24.09;60.50;99322.97;4338481;33;20344;-85
2022/05/23 08:05:30;;;;;;;;;;;;;;;24.30;60.51;99320.13;4347822;33;19967;-83
2022/05/23 08:07:55;;;;;;;;;;;;;;;23.93;60.49;99322.78;4349662;33;19995;-86
2022/05/23 08:10:20;;;;;;;;;;;;;;;24.21;60.51;99317.50;4349568;33;19983;-85
2022/05/23 08:12:47;;;;;;;;;;;;;;;24.25;60.51;99324.19;4349495;33;20003;-86
2022/05/23 08:15:13;;;;;;;;;;;;;;;24.38;60.52;99311.44;4336088;33;19976;-85
2022/05/23 08:17:38;;;;;;;;;;;;;;;24.45;60.53;99315.19;4348157;33;20090;-86
2022/05/23 08:20:05;;;;;;;;;;;;;;;24.64;60.53;99308.91;4335433;33;22609;-83
2022/05/23 08:22:31;;;;;;;;;;;;;;;25.11;60.56;99306.09;4349378;33;20364;-84
2022/05/23 08:24:56;;;;;;;;;;;;;;;25.44;60.57;99301.88;4348373;33;19990;-84
2022/05/23 08:27:21;;;;;;;;;;;;;;;25.69;60.58;99309.09;4349459;33;19975;-84
2022/05/23 08:29:47;;;;;;;;;;;;;;;25.73;60.59;99304.28;4349463;33;20331;-84
2022/05/23 08:32:14;;;;;;;;;;;;;;;25.95;60.60;99301.94;4349482;33;20002;-85
2022/05/23 08:34:39;;;;;;;;;;;;;;;26.32;60.62;99290.13;4347945;33;19984;-84
2022/05/23 08:37:04;;;;;;;;;;;;;;;26.15;60.61;99293.69;4349489;33;19996;-83
2022/05/23 08:39:30;;;;;;;;;;;;;;;26.42;60.63;99287.34;4348294;33;20532;-84
2022/05/23 08:41:55;;;;;;;;;;;;;;;26.51;60.63;99281.88;4349426;33;19994;-84
2022/05/23 08:44:32;;;;;;;;;;;;;;;26.46;60.62;99278.84;4335223;33;20360;-83
2022/05/23 08:46:58;;;;;;;;;;;;;;;26.72;60.64;99264.56;4349273;33;19993;-83
2022/05/23 08:49:30;;;;;;;;;;;;;;;26.72;60.64;99276.06;4335627;33;19995;-83
2022/05/23 08:51:59;;;;;;;;;;;;;;;26.63;60.64;99274.38;4323443;33;19998;-82
2022/05/23 08:54:42;;;;;;;;;;;;;;;26.98;60.66;99262.63;4349346;33;19975;-82
2022/05/23 08:57:09;;;;;;;;;;;;;;;27.11;60.66;99254.97;4349693;33;19975;-83
2022/05/23 08:59:38;;;;;;;;;;;;;;;27.22;60.67;99259.16;4336093;33;20020;-83
2022/05/23 09:02:05;;;;;;;;;;;;;;;27.40;60.68;99254.44;4323818;33;19990;-83
2022/05/23 09:04:33;;;;;;;;;;;;;;;27.55;60.68;99254.59;4323648;33;19996;-81
2022/05/23 09:06:58;;;;;;;;;;;;;;;27.58;60.69;99254.25;4349553;33;19979;-82
2022/05/23 09:09:25;;;;;;;;;;;;;;;27.72;60.69;99256.28;4336038;33;20257;-82
2022/05/23 09:11:52;;;;;;;;;;;;;;;27.60;60.69;99246.06;4335886;33;19994;-83
2022/05/23 09:14:17;;;;;;;;;;;;;;;27.57;60.68;99249.91;4335878;33;20312;-82
2022/05/23 09:16:46;;;;;;;;;;;;;;;27.96;60.70;99246.53;4322899;33;20014;-84
2022/05/23 09:19:40;;;;;;;;;;;;;;;28.01;60.71;99242.31;4348488;33;20010;-84
2022/05/23 09:22:14;;;;;;;;;;;;;;;27.80;60.71;99247.37;4339288;33;19979;-82
2022/05/23 09:24:41;;;;;;;;;;;;;;;27.92;60.71;99251.38;4348795;33;19990;-83
2022/05/23 09:27:19;;;;;;;;;;;;;;;28.01;60.71;99249.50;4323007;33;19999;-84
2022/05/23 09:29:46;;;;;;;;;;;;;;;28.06;60.71;99249.81;4335833;33;20687;-84
2022/05/23 09:32:13;;;;;;;;;;;;;;;28.20;60.71;99243.75;4335716;33;20352;-85
2022/05/23 09:35:07;;;;;;;;;;;;;;;28.45;60.73;99241.81;4335578;33;20038;-85
2022/05/23 09:37:39;;;;;;;;;;;;;;;28.73;60.74;99244.81;4344557;33;19991;-85
2022/05/23 09:40:05;;;;;;;;;;;;;;;28.85;60.76;99247.91;4355000;33;20050;-85
2022/05/23 09:48:06;;;;;;;;;;;;;;;29.38;60.78;99240.81;4348809;33;20339;-85
2022/05/23 09:50:34;;;;;;;;;;;;;;;29.52;60.79;99234.66;4335440;33;20014;-86
2022/05/23 09:53:01;;;;;;;;;;;;;;;29.51;60.79;99227.62;4348942;33;19980;-85
2022/05/23 09:55:30;;;;;;;;;;;;;;;29.46;60.78;99230.87;4335364;33;19976;-86
2022/05/23 09:57:56;;;;;;;;;;;;;;;29.50;60.78;99229.50;4335342;33;19987;-85
2022/05/23 10:00:22;;;;;;;;;;;;;;;29.76;60.80;99230.91;4323089;33;19995;-85
2022/05/23 10:02:50;;;;;;;;;;;;;;;29.58;60.79;99224.06;4348961;33;19980;-84
2022/05/23 10:05:27;;;;;;;;;;;;;;;29.56;60.79;99223.37;4335394;33;20249;-83
2022/05/23 10:08:00;;;;;;;;;;;;;;;29.32;60.78;99227.09;4335137;33;20034;-84
2022/05/23 10:10:32;;;;;;;;;;;;;;;28.71;60.75;99233.44;4348591;33;19983;-83
2022/05/23 10:13:10;;;;;;;;;;;;;;;28.56;60.74;99233.38;4323038;33;19983;-83
2022/05/23 10:15:35;;;;;;;;;;;;;;;28.76;60.74;99232.91;4348857;33;20002;-83
2022/05/23 10:18:04;;;;;;;;;;;;;;;29.02;60.76;99234.25;4334945;33;20055;-82
2022/05/23 10:20:39;;;;;;;;;;;;;;;29.01;60.77;99234.44;4348396;33;20009;-84
2022/05/23 10:23:20;;;;;;;;;;;;;;;29.14;60.77;99228.47;4335899;33;19975;-84
2022/05/23 10:26:01;;;;;;;;;;;;;;;28.93;60.77;99229.13;4335483;33;20002;-84
2022/05/23 10:28:36;;;;;;;;;;;;;;;29.26;60.78;99225.16;4335141;33;20021;-84
2022/05/23 10:31:07;;;;;;;;;;;;;;;29.57;60.79;99224.22;4335590;33;20058;-84
2022/05/23 10:33:32;;;;;;;;;;;;;;;29.65;60.80;99213.41;4335526;33;20026;-84
2022/05/23 10:36:01;;;;;;;;;;;;;;;29.75;60.80;99213.12;4335051;33;20006;-83
2022/05/23 10:44:17;;;;;;;;;;;;;;;29.80;60.81;99208.03;4337268;33;20034;-84
2022/05/23 10:46:44;;;;;;;;;;;;;;;29.84;60.80;99194.09;4322167;33;19988;-84
2022/05/23 10:49:18;;;;;;;;;;;;;;;29.91;60.81;99199.53;4334868;33;19992;-83
2022/05/23 10:51:46;;;;;;;;;;;;;;;29.88;60.81;99189.19;4348185;33;20008;-83
2022/05/23 10:54:11;;;;;;;;;;;;;;;29.72;60.80;99194.72;4334683;33;20046;-83
2022/05/23 10:56:36;;;;;;;;;;;;;;;29.52;60.79;99186.41;4334366;33;20049;-83
2022/05/23 10:59:28;;;;;;;;;;;;;;;29.49;60.79;99187.59;4348080;33;19968;-83
2022/05/23 11:02:12;;;;;;;;;;;;;;;29.41;60.78;99182.31;4345894;33;20042;-84
2022/05/23 11:04:38;;;;;;;;;;;;;;;29.45;60.78;99178.25;4348345;33;20451;-82
2022/05/23 11:07:03;;;;;;;;;;;;;;;29.20;60.78;99168.78;4348067;33;20302;-83
2022/05/23 11:09:32;;;;;;;;;;;;;;;28.82;60.76;99179.44;4323889;33;782003;-82
2022/05/23 11:11:57;;;;;;;;;;;;;;;28.62;60.75;99175.59;4348182;33;19991;-82
2022/05/23 11:14:22;;;;;;;;;;;;;;;28.61;60.75;99168.56;4347750;33;19994;-82
2022/05/23 11:17:07;;;;;;;;;;;;;;;28.84;60.76;99173.91;4347829;33;20234;-82
2022/05/23 11:19:45;;;;;;;;;;;;;;;29.09;60.77;99171.88;4334375;33;19991;-82
2022/05/23 11:22:27;;;;;;;;;;;;;;;29.45;60.78;99174.75;4334637;33;20071;-83
2022/05/23 11:25:02;;;;;;;;;;;;;;;29.55;60.79;99169.94;4322334;33;19997;-82
2022/05/23 11:35:43;;;;;;;;;;;;;;;28.81;60.76;99169.75;4336900;33;19998;-82
2022/05/23 11:38:08;;;;;;;;;;;;;;;28.67;60.74;99170.53;4334826;33;19975;-82
2022/05/23 11:40:37;;;;;;;;;;;;;;;28.71;60.75;99163.81;4334319;33;20040;-83
2022/05/23 11:43:05;;;;;;;;;;;;;;;28.63;60.74;99164.72;4336151;33;19999;-83
2022/05/23 11:48:36;;;;;;;;;;;;;;;29.34;60.78;99160.75;4338131;33;20037;-84
2022/05/23 11:51:20;;;;;;;;;;;;;;;29.52;60.79;99159.56;4336507;33;19991;-83
2022/05/23 11:53:59;;;;;;;;;;;;;;;29.83;60.81;99154.03;4336389;33;20454;-84
2022/05/23 11:56:33;;;;;;;;;;;;;;;29.95;60.82;99149.84;4324579;33;19980;-83
2022/05/23 11:58:59;;;;;;;;;;;;;;;30.16;60.82;99141.88;4349644;33;19994;-83
2022/05/23 12:01:26;;;;;;;;;;;;;;;30.28;60.84;99139.50;4335981;33;20031;-81
2022/05/23 12:03:55;;;;;;;;;;;;;;;30.36;60.84;99149.31;4336145;33;20013;-80
2022/05/23 12:06:23;;;;;;;;;;;;;;;30.44;60.84;99149.16;4335907;33;19968;-81
2022/05/23 12:08:57;;;;;;;;;;;;;;;30.45;60.84;99142.78;4349545;33;19979;-81
2022/05/23 12:11:23;;;;;;;;;;;;;;;30.45;60.84;99148.16;4349365;33;19995;-84
2022/05/23 12:13:51;;;;;;;;;;;;;;;30.58;60.84;99158.22;4336008;33;20269;-83
2022/05/23 12:16:36;;;;;;;;;;;;;;;30.53;60.84;99154.25;4323721;33;20097;-82
2022/05/23 12:19:11;;;;;;;;;;;;;;;30.24;60.82;99140.91;4335723;33;19990;-84
2022/05/23 12:21:36;;;;;;;;;;;;;;;29.88;60.81;99144.41;4335924;33;19992;-84
2022/05/23 12:24:20;;;;;;;;;;;;;;;29.94;60.81;99137.44;4349512;33;19993;-83
2022/05/23 12:26:50;;;;;;;;;;;;;;;29.70;60.81;99141.28;4349619;33;20375;-84
2022/05/23 12:29:24;;;;;;;;;;;;;;;29.43;60.79;99136.53;4336234;33;19980;-85
2022/05/23 12:32:08;;;;;;;;;;;;;;;29.50;60.80;99124.06;4349303;33;19995;-85
2022/05/23 12:34:33;;;;;;;;;;;;;;;29.74;60.80;99115.72;4349262;33;20003;-86
2022/05/23 12:36:58;;;;;;;;;;;;;;;29.94;60.81;99110.59;4335982;33;20294;-84
2022/05/23 12:39:42;;;;;;;;;;;;;;;29.78;60.80;99114.31;4335703;33;19999;-83
2022/05/23 12:42:13;;;;;;;;;;;;;;;29.79;60.81;99120.53;4335980;33;20005;-83
2022/05/23 12:44:49;;;;;;;;;;;;;;;29.57;60.80;99108.91;4336100;33;20353;-82
2022/05/23 12:47:16;;;;;;;;;;;;;;;29.53;60.79;99113.81;4349240;33;19967;-82
2022/05/23 12:49:49;;;;;;;;;;;;;;;29.54;60.79;99112.78;4349340;33;19984;-83
2022/05/23 12:52:27;;;;;;;;;;;;;;;29.72;60.81;99109.72;4348149;33;19994;-83
2022/05/23 12:54:55;;;;;;;;;;;;;;;29.84;60.81;99104.72;4349431;33;19991;-82
2022/05/23 12:57:30;;;;;;;;;;;;;;;29.91;60.81;99101.09;4349233;33;19990;-82
2022/05/23 13:00:03;;;;;;;;;;;;;;;29.99;60.82;99092.06;4335539;33;20022;-84
2022/05/23 13:02:28;;;;;;;;;;;;;;;29.70;60.81;99095.66;4335844;33;20330;-84
2022/05/23 13:04:56;;;;;;;;;;;;;;;29.68;60.80;99095.03;4335740;33;20009;-83
2022/05/23 13:07:21;;;;;;;;;;;;;;;29.57;60.80;99092.81;4335710;33;19987;-83
2022/05/23 13:09:48;;;;;;;;;;;;;;;29.29;60.78;99092.59;4349229;33;20047;-83
2022/05/23 13:12:16;;;;;;;;;;;;;;;29.33;60.79;99083.16;4335422;33;19999;-83
2022/05/23 13:15:00;;;;;;;;;;;;;;;29.49;60.80;99069.59;4335401;33;20476;-83
2022/05/23 13:17:31;;;;;;;;;;;;;;;29.24;60.78;99070.87;4348814;33;20383;-82
2022/05/23 13:22:40;;;;;;;;;;;;;;;29.26;60.78;99058.13;4348990;33;20375;-84
2022/05/23 13:25:05;;;;;;;;;;;;;;;29.54;60.79;99063.69;4335748;33;20003;-84
2022/05/23 13:27:33;;;;;;;;;;;;;;;29.34;60.78;99066.94;4335774;33;20326;-84
2022/05/23 13:30:09;;;;;;;;;;;;;;;29.37;60.78;99070.25;4336015;33;20314;-84
2022/05/23 13:32:34;;;;;;;;;;;;;;;29.60;60.80;99050.38;4348891;33;19979;-85
2022/05/23 13:34:59;;;;;;;;;;;;;;;29.63;60.80;99055.34;4349092;33;20365;-84
2022/05/23 13:37:35;;;;;;;;;;;;;;;29.58;60.80;99052.41;4335560;33;19995;-84
2022/05/23 13:40:14;;;;;;;;;;;;;;;29.10;60.77;99052.94;4335180;33;19979;-82
2022/05/23 13:42:39;;;;;;;;;;;;;;;29.10;60.77;99058.31;4335449;33;20008;-84
2022/05/23 13:45:08;;;;;;;;;;;;;;;29.18;60.78;99045.66;4348938;33;19991;-84
2022/05/23 13:47:33;;;;;;;;;;;;;;;29.41;60.79;99048.25;4335419;33;20556;-84
2022/05/23 13:50:00;;;;;;;;;;;;;;;29.41;60.79;99040.19;4334991;33;22825;-84
2022/05/23 13:52:27;;;;;;;;;;;;;;;29.50;60.79;99041.78;4335322;33;20010;-84
2022/05/23 13:54:54;;;;;;;;;;;;;;;29.56;60.80;99040.19;4335493;33;20030;-84
2022/05/23 13:57:32;;;;;;;;;;;;;;;29.71;60.81;99041.00;4348926;33;20368;-84